Latest Weather Observations for Strahan

IDT60801

Issued at 3:51 pm EDT Saturday 22 February 2020 (issued every 10 minutes, with the page automatically refreshed every 10 minutes)

About weather observations | Map of weather stations | Latest weather observations for TAS | Other Formats
Station Details ID: 097072 Name: STRAHAN AERODROME Lat: -42.16 Lon: 145.29 Height: 21.0 m
Data from the previous 72 hours. | See also: Recent months at Strahan
Date/Time
EDT
Temp
°C
App
Temp
°C
Dew
Point
°C
Rel
Hum
%
Delta-T
°C
Wind Press
QNH
hPa
Press
MSL
hPa
Rain since
9am
mm
Dir  Spd
km/h
Gust
km/h
Spd
kts
Gust
kts
22/03:30pm 17.6 14.5 10.2 62 3.9 W 17 22 9 12 1024.1 1024.0 0.0
22/03:00pm 17.8 14.5 9.7 59 4.2 WSW 17 24 9 13 1024.4 1024.3 0.0
22/02:30pm 17.6 14.0 9.8 60 4.1 WSW 19 24 10 13 1024.5 1024.4 0.0
22/02:00pm 17.7 13.8 8.8 56 4.6 W 19 26 10 14 1024.7 1024.6 0.0
22/01:30pm 17.9 14.7 8.5 54 4.8 W 15 22 8 12 1024.8 1024.7 0.0
22/01:00pm 17.9 14.7 8.5 54 4.8 W 15 20 8 11 1025.0 1024.9 0.0
22/12:30pm 18.0 15.4 9.4 57 4.5 WSW 13 19 7 10 1025.2 1025.1 0.0
22/12:00pm 17.3 14.7 7.6 53 4.9 W 11 17 6 9 1025.4 1025.3 0.0
22/11:30am 17.7 15.1 9.3 58 4.4 WSW 13 19 7 10 1025.6 1025.5 0.0
22/11:00am 16.8 15.0 9.5 62 3.8 W 9 15 5 8 1025.5 1025.4 0.0
22/10:30am 16.1 14.3 7.3 56 4.4 NNW 6 9 3 5 1025.4 1025.3 0.0
22/10:00am 15.2 13.6 8.2 63 3.5 ENE 6 9 3 5 1025.3 1025.2 0.0
22/09:30am 14.1 12.5 7.9 66 3.1 ENE 6 9 3 5 1025.4 1025.3 0.0
22/09:00am 12.7 11.2 8.6 76 2.0 E 6 7 3 4 1025.4 1025.3 0.2
22/08:30am 11.0 9.1 7.7 80 1.6 ENE 7 11 4 6 1025.2 1025.1 0.2
22/08:00am 9.0 6.6 7.0 87 0.9 NE 9 11 5 6 1025.0 1024.9 0.2
22/07:30am 7.2 4.9 5.7 90 0.7 NE 7 9 4 5 1024.8 1024.7 0.2
22/07:00am 6.6 3.9 5.4 92 0.5 NE 9 11 5 6 1024.4 1024.3 0.2
22/06:30am 6.7 4.5 5.5 92 0.5 NE 6 9 3 5 1024.5 1024.4 0.2
22/06:00am 6.6 4.2 5.4 92 0.5 NE 7 11 4 6 1024.2 1024.1 0.2
22/05:30am 6.6 3.5 5.4 92 0.5 NNE 11 13 6 7 1024.0 1023.9 0.2
22/05:00am 6.8 3.7 5.7 93 0.5 NNE 11 13 6 7 1023.9 1023.8 0.2
22/04:30am 6.9 4.2 5.7 92 0.5 NNE 9 11 5 6 1024.1 1024.0 0.2
22/04:00am 7.1 4.5 5.9 92 0.5 NNE 9 11 5 6 1024.2 1024.1 0.2
22/03:30am 6.7 3.6 5.7 93 0.4 NE 11 13 6 7 1024.2 1024.1 0.2
22/03:00am 6.6 5.5 5.2 91 0.6 CALM 0 0 0 0 1024.2 1024.1 0.2
22/02:30am 7.0 4.8 5.5 90 0.7 NNE 6 7 3 4 1024.3 1024.2 0.2
22/02:00am 7.7 4.8 6.3 91 0.6 NNE 11 11 6 6 1024.4 1024.3 0.2
22/01:30am 7.5 4.9 6.1 91 0.6 NNE 9 11 5 6 1024.5 1024.4 0.2
22/01:00am 7.6 5.6 6.1 90 0.7 NNE 6 7 3 4 1024.5 1024.4 0.2
22/12:30am 7.6 5.4 6.1 90 0.7 N 7 9 4 5 1024.6 1024.5 0.0
22/12:00am 7.9 5.4 6.4 90 0.7 NNE 9 11 5 6 1024.5 1024.4 0.0
 
Date/Time
EDT
Temp
°C
App
Temp
°C
Dew
Point
°C
Rel
Hum
%
Delta-T
°C
Wind Press
QNH
hPa
Press
MSL
hPa
Rain since
9am
mm
Dir  Spd
km/h
Gust
km/h
Spd
kts
Gust
kts
21/11:30pm 8.4 5.5 6.7 89 0.8 NNE 11 13 6 7 1024.3 1024.2 0.0
21/11:00pm 8.6 6.5 6.6 87 0.9 NNE 7 9 4 5 1024.3 1024.2 0.0
21/10:30pm 8.9 6.7 6.2 83 1.2 NE 7 7 4 4 1024.1 1024.0 0.0
21/10:00pm 10.6 8.2 6.9 78 1.7 SSE 9 11 5 6 1024.2 1024.1 0.0
21/09:30pm 10.1 6.9 7.0 81 1.5 S 13 17 7 9 1024.1 1024.0 0.0
21/09:00pm 9.9 6.6 6.6 80 1.5 SSW 13 15 7 8 1023.6 1023.5 0.0
21/08:30pm 10.7 7.9 7.0 78 1.8 SW 11 13 6 7 1023.2 1023.1 0.0
21/08:00pm 12.1 8.9 7.0 71 2.4 SSW 13 15 7 8 1022.7 1022.6 0.0
21/07:30pm 13.4 9.9 7.2 66 3.0 SSW 15 20 8 11 1022.2 1022.1 0.0
21/07:00pm 14.1 10.8 7.9 66 3.1 SW 15 20 8 11 1021.9 1021.8 0.0
21/06:30pm 15.0 11.3 7.8 62 3.6 SSW 17 24 9 13 1021.6 1021.5 0.0
21/06:00pm 15.1 11.0 8.8 66 3.2 WSW 20 28 11 15 1021.5 1021.4 0.0
21/05:30pm 15.1 10.5 8.1 63 3.5 WSW 22 28 12 15 1021.4 1021.3 0.0
21/05:00pm 15.7 12.3 9.1 65 3.4 WSW 17 24 9 13 1021.4 1021.3 0.0
21/04:30pm 14.9 10.8 7.9 63 3.5 WSW 19 24 10 13 1021.4 1021.3 0.0
21/04:00pm 15.0 10.2 8.7 66 3.2 WSW 24 32 13 17 1021.4 1021.3 0.0
21/03:30pm 15.9 10.1 9.3 65 3.4 WSW 30 37 16 20 1021.4 1021.3 0.0
21/03:00pm 16.4 11.8 8.1 58 4.2 SSW 22 33 12 18 1021.2 1021.1 0.0
21/02:30pm 16.2 12.2 9.2 63 3.6 SSW 20 30 11 16 1021.2 1021.1 0.0
21/02:00pm 15.9 11.1 7.4 57 4.2 SW 22 30 12 16 1021.0 1020.9 0.0
21/01:30pm 16.9 12.6 9.3 61 4.0 SW 22 32 12 17 1020.8 1020.7 0.0
21/01:00pm 16.0 11.7 8.0 59 4.0 SSW 20 28 11 15 1020.7 1020.6 0.0
21/12:30pm 14.8 9.7 7.8 63 3.5 SSW 24 30 13 16 1020.8 1020.7 0.0
21/12:00pm 15.4 10.4 8.2 62 3.6 SSW 24 33 13 18 1020.6 1020.5 0.0
21/11:30am 14.7 10.8 7.3 61 3.6 S 17 28 9 15 1020.3 1020.2 0.0
21/11:00am 14.0 10.3 7.8 66 3.1 SSW 17 24 9 13 1020.2 1020.1 0.0
21/10:30am 13.7 9.8 7.2 65 3.2 SSW 17 24 9 13 1019.8 1019.7 0.0
21/10:00am 13.5 8.9 6.6 63 3.3 S 20 30 11 16 1019.5 1019.4 0.0
21/09:30am 14.1 9.4 7.6 65 3.2 SSW 22 30 12 16 1019.4 1019.3 0.0
21/09:00am 13.8 9.9 7.3 65 3.2 S 17 30 9 16 1019.0 1018.9 0.8
21/08:30am 12.7 9.1 8.2 74 2.2 S 17 24 9 13 1018.7 1018.6 0.8
21/08:00am 10.9 7.8 9.0 88 0.9 S 15 22 8 12 1018.3 1018.2 0.8
21/07:30am 9.9 6.3 6.8 81 1.5 SSW 15 17 8 9 1018.0 1017.9 0.8
21/07:00am 10.2 6.7 7.3 82 1.4 SSW 15 20 8 11 1017.5 1017.4 0.8
21/06:30am 10.0 7.0 7.6 85 1.1 SSW 13 17 7 9 1017.0 1016.9 0.8
21/06:00am 9.6 6.1 7.2 85 1.1 SSW 15 20 8 11 1016.5 1016.4 0.8
21/05:30am 10.8 6.3 8.6 86 1.1 S 22 32 12 17 1016.4 1016.3 0.8
21/05:00am 11.0 6.8 7.3 78 1.8 SSW 19 24 10 13 1016.2 1016.1 0.8
21/04:30am 11.4 8.0 7.7 78 1.8 SSW 15 22 8 12 1016.0 1015.9 0.8
21/04:00am 11.5 8.3 8.5 82 1.5 S 15 20 8 11 1015.9 1015.8 0.8
21/03:30am 11.4 8.6 8.6 83 1.4 S 13 20 7 11 1015.9 1015.8 0.8
21/03:00am 11.1 7.6 8.8 86 1.1 SSW 17 24 9 13 1016.1 1016.0 0.8
21/02:30am 10.1 7.5 7.9 86 1.1 SSW 11 15 6 8 1015.8 1015.7 0.8
21/02:00am 9.3 6.1 6.9 85 1.1 SSW 13 17 7 9 1015.8 1015.7 0.8
21/01:30am 9.8 6.7 7.1 83 1.3 SW 13 15 7 8 1015.7 1015.6 0.8
21/01:00am 11.3 7.3 8.3 82 1.5 SSW 19 26 10 14 1015.4 1015.4 0.8
21/12:30am 11.8 8.2 9.9 88 1.0 SSW 19 26 10 14 1015.2 1015.2 0.8
21/12:00am 11.4 8.9 9.8 90 0.8 SW 13 17 7 9 1014.9 1014.9 0.8
 
Date/Time
EDT
Temp
°C
App
Temp
°C
Dew
Point
°C
Rel
Hum
%
Delta-T
°C
Wind Press
QNH
hPa
Press
MSL
hPa
Rain since
9am
mm
Dir  Spd
km/h
Gust
km/h
Spd
kts
Gust
kts
20/11:30pm 11.0 9.3 9.8 92 0.6 SW 9 13 5 7 1014.7 1014.7 0.8
20/11:00pm 11.2 8.8 10.0 92 0.6 SW 13 17 7 9 1014.8 1014.8 0.8
20/10:30pm 11.8 6.9 9.9 88 1.0 SW 26 35 14 19 1014.7 1014.7 0.8
20/10:23pm 12.6 9.1 11.0 90 0.8 WSW 20 35 11 19 1014.7 1014.7 0.6
20/10:00pm 12.5 11.3 11.6 94 0.5 SW 9 17 5 9 1014.5 1014.5 0.6
20/09:30pm 11.7 10.7 11.1 96 0.3 NNW 7 13 4 7 1014.5 1014.5 0.6
20/09:00pm 11.7 10.7 10.9 95 0.4 N 7 9 4 5 1014.4 1014.4 0.6
20/08:30pm 11.7 10.3 10.8 94 0.5 N 9 11 5 6 1014.3 1014.3 0.4
20/08:00pm 11.7 11.1 10.3 91 0.7 WNW 4 7 2 4 1014.3 1014.3 0.4
20/07:34pm 12.1 11.3 11.0 93 0.6 WNW 6 9 3 5 1014.3 1014.3 0.4
20/07:31pm 12.2 11.5 11.3 94 0.5 W 6 7 3 4 1014.2 1014.2 0.4
20/07:30pm 12.3 11.6 11.4 94 0.5 W 6 7 3 4 1014.2 1014.2 0.4
20/07:12pm 12.1 10.3 10.8 92 0.7 SW 11 15 6 8 1014.4 1014.4 0.2
20/07:00pm 12.2 9.9 10.4 89 0.9 WSW 13 19 7 10 1014.2 1014.2 0.0
20/06:53pm 12.4 9.6 10.1 86 1.2 W 15 20 8 11 1014.2 1014.2 0.0
20/06:30pm 13.5 10.0 8.8 73 2.4 WSW 17 20 9 11 1014.1 1014.1 0.0
20/06:00pm 14.3 10.7 8.5 68 2.9 W 17 22 9 12 1013.9 1013.9 0.0
20/05:30pm 14.8 11.7 9.0 68 3.0 WNW 15 20 8 11 1013.9 1013.9 0.0
20/05:00pm 15.1 11.7 9.2 68 3.0 W 17 24 9 13 1014.0 1014.0 0.0
20/04:30pm 15.4 12.0 9.1 66 3.2 WNW 17 24 9 13 1014.1 1014.1 0.0
20/04:00pm 15.4 12.8 9.3 67 3.1 SW 13 24 7 13 1014.0 1014.0 0.0
20/03:30pm 14.6 11.0 8.5 67 3.1 SW 17 24 9 13 1014.5 1014.5 0.0
20/03:00pm 14.9 11.0 8.6 66 3.2 W 19 24 10 13 1014.6 1014.6 0.0
20/02:30pm 15.1 10.7 7.4 60 3.8 WSW 20 26 11 14 1014.5 1014.5 0.0
20/02:00pm 15.7 11.6 8.7 63 3.6 WSW 20 30 11 16 1014.4 1014.4 0.0
20/01:30pm 14.9 11.0 8.6 66 3.2 WSW 19 28 10 15 1014.7 1014.7 0.0
20/01:00pm 14.2 10.2 9.2 72 2.5 SW 20 32 11 17 1014.7 1014.7 0.0
20/12:30pm 14.5 10.9 8.2 66 3.2 SSW 17 24 9 13 1014.6 1014.6 0.0
20/12:00pm 13.7 9.3 9.0 73 2.4 SSW 22 30 12 16 1014.7 1014.7 0.0
20/11:30am 13.9 9.6 7.9 67 3.0 SW 20 30 11 16 1014.7 1014.7 0.0
20/11:00am 13.6 9.1 8.7 72 2.5 SW 22 28 12 15 1014.6 1014.6 0.0
20/10:30am 13.5 10.0 8.6 72 2.5 SSW 17 22 9 12 1014.5 1014.5 0.0
20/10:00am 12.8 8.8 8.3 74 2.2 SSW 19 28 10 15 1014.6 1014.6 0.0
20/09:30am 13.2 10.5 8.9 75 2.2 S 13 20 7 11 1014.5 1014.5 0.0
20/09:00am 13.0 9.4 8.3 73 2.3 SSE 17 24 9 13 1014.3 1014.3 0.0
20/08:30am 12.8 9.2 8.3 74 2.2 SSE 17 24 9 13 1014.1 1014.1 0.0
20/08:00am 12.5 9.3 8.4 76 2.0 SSE 15 26 8 14 1014.0 1014.0 0.0
20/07:30am 12.5 8.6 8.8 78 1.9 S 19 28 10 15 1013.8 1013.8 0.0
20/07:00am 12.2 8.2 8.9 80 1.7 S 20 33 11 18 1013.5 1013.5 0.0
20/06:30am 12.1 9.2 9.5 84 1.3 S 15 20 8 11 1013.3 1013.3 0.0
20/06:00am 12.1 8.4 9.5 84 1.3 S 19 24 10 13 1013.0 1013.0 0.0
20/05:30am 11.9 8.7 10.0 88 1.0 S 17 20 9 11 1012.8 1012.8 0.0
20/05:00am 12.2 9.0 10.1 87 1.1 S 17 24 9 13 1012.8 1012.8 0.0
20/04:30am 12.3 8.7 10.0 86 1.2 S 19 24 10 13 1012.8 1012.8 0.0
20/04:00am 12.1 9.0 10.2 88 1.0 S 17 22 9 12 1012.7 1012.7 0.0
20/03:30am 12.1 9.0 10.3 89 0.9 SSW 17 24 9 13 1012.8 1012.8 0.0
20/03:00am 12.3 9.3 10.7 90 0.8 S 17 26 9 14 1012.8 1012.8 0.0
20/02:30am 12.5 9.1 10.4 87 1.1 SSW 19 26 10 14 1013.0 1013.0 0.0
20/02:00am 12.6 9.6 10.8 89 0.9 SSW 17 22 9 12 1013.1 1013.1 0.0
20/01:36am 12.6 10.0 10.7 88 1.0 S 15 20 8 11 1013.3 1013.3 0.0
20/01:30am 12.6 9.6 10.8 89 0.9 S 17 20 9 11 1013.4 1013.4 0.0
20/01:00am 12.8 9.7 10.3 85 1.3 S 17 22 9 12 1013.3 1013.3 0.0
20/12:30am 13.0 10.1 10.9 87 1.1 S 17 26 9 14 1013.2 1013.2 0.0
20/12:00am 12.9 9.5 11.1 89 0.9 S 20 28 11 15 1013.2 1013.2 0.0
 
Date/Time
EDT
Temp
°C
App
Temp
°C
Dew
Point
°C
Rel
Hum
%
Delta-T
°C
Wind Press
QNH
hPa
Press
MSL
hPa
Rain since
9am
mm
Dir  Spd
km/h
Gust
km/h
Spd
kts
Gust
kts
19/11:30pm 13.0 9.6 11.4 90 0.8 SSW 20 30 11 16 1013.2 1013.2 0.0
19/11:28pm 12.9 9.5 11.3 90 0.8 SSW 20 28 11 15 1013.2 1013.2 0.0
19/11:00pm 12.7 10.2 11.1 90 0.8 S 15 22 8 12 1013.3 1013.3 0.0
19/10:56pm 12.7 9.8 10.9 89 0.9 S 17 24 9 13 1013.3 1013.3 0.0
19/10:30pm 12.6 8.3 10.8 89 0.9 S 24 32 13 17 1013.5 1013.5 0.0
19/10:00pm 13.1 9.6 11.0 87 1.1 S 20 30 11 16 1013.2 1013.2 0.0
19/09:49pm 13.0 9.5 10.9 87 1.1 S 20 28 11 15 1013.2 1013.2 0.0
19/09:30pm 13.0 8.4 10.9 87 1.1 S 26 33 14 18 1013.1 1013.1 0.0
19/09:00pm 12.9 8.6 10.6 86 1.2 S 24 32 13 17 1012.9 1012.9 0.0
19/08:30pm 12.8 8.8 10.5 86 1.2 S 22 32 12 17 1012.7 1012.7 0.0
19/08:00pm 13.2 8.9 10.6 84 1.4 S 24 32 13 17 1012.3 1012.3 0.0
19/07:52pm 13.5 8.8 10.5 82 1.6 S 26 39 14 21 1012.2 1012.2 0.0
19/07:30pm 13.9 8.9 10.9 82 1.6 S 28 39 15 21 1011.9 1011.9 0.0
19/07:05pm 14.6 8.8 10.8 78 2.0 S 32 43 17 23 1011.7 1011.7 0.0
19/07:00pm 14.8 9.1 11.0 78 2.0 S 32 43 17 23 1011.8 1011.8 0.0
19/06:30pm 15.2 8.6 11.2 77 2.1 S 37 50 20 27 1011.6 1011.6 0.0
19/06:00pm 15.9 9.2 11.1 73 2.6 SSW 37 50 20 27 1011.0 1011.0 0.0
19/05:39pm 16.2 9.0 10.5 69 3.0 SSW 39 57 21 31 1010.8 1010.8 0.0
19/05:30pm 16.0 8.7 10.1 68 3.1 SSW 39 54 21 29 1010.7 1010.7 0.0
19/05:00pm 16.8 9.2 10.4 66 3.4 SSW 41 56 22 30 1010.6 1010.6 0.0
19/04:39pm 17.2 10.1 10.8 66 3.4 SSW 39 57 21 31 1010.4 1010.4 0.0
19/04:30pm 17.2 9.3 10.8 66 3.4 SSW 43 57 23 31 1010.3 1010.3 0.0
19/04:00pm 18.1 9.9 9.7 58 4.4 SSW 43 59 23 32 1010.1 1010.1 0.0

Other formats

Comma delimited format used in spreadsheet applications
http://www.bom.gov.au/fwo/IDT60801/IDT60801.94956.axf

JavaScript Object Notation format (JSON) in row-major order
http://www.bom.gov.au/fwo/IDT60801/IDT60801.94956.json

Data quality

Most of these data are generated automatically and are frequently updated. Quality checks on data are not normally performed. It is possible for incorrect values to appear. Refer to information at About Latest Weather Observations and please check the disclaimer before using these data.